createdAt,value
2022-12-05T13:57:22.683Z,1.27
2022-12-05T13:58:22.668Z,1.24
2022-12-05T13:59:22.643Z,1.26
2022-12-05T14:00:22.706Z,1.27
2022-12-05T14:01:22.780Z,1.23
2022-12-05T14:02:22.700Z,1.26
2022-12-05T14:03:22.654Z,1.24
2022-12-05T14:04:22.598Z,1.24
2022-12-05T14:05:22.626Z,1.23
2022-12-05T14:06:22.552Z,1.20
2022-12-05T14:07:22.575Z,1.16
2022-12-05T14:08:22.602Z,1.20
2022-12-05T14:09:22.536Z,1.16
2022-12-05T14:10:22.526Z,1.14
2022-12-05T14:11:22.508Z,1.12
2022-12-05T14:12:22.467Z,1.14
2022-12-05T14:13:22.502Z,1.12
2022-12-05T14:14:22.458Z,1.14
2022-12-05T14:15:22.434Z,1.09
2022-12-05T14:16:22.480Z,1.09
2022-12-05T14:17:22.408Z,1.09
2022-12-05T14:18:22.408Z,1.08
2022-12-05T14:19:22.378Z,1.08
2022-12-05T14:20:22.349Z,1.09
2022-12-05T14:21:22.356Z,1.09
2022-12-05T14:22:22.327Z,1.11
2022-12-05T14:23:22.318Z,1.09
2022-12-05T14:24:22.305Z,1.06
2022-12-05T14:25:22.300Z,1.08
2022-12-05T14:26:22.299Z,1.06
2022-12-05T14:27:22.270Z,1.08
2022-12-05T14:28:22.268Z,1.05
2022-12-05T14:29:22.232Z,1.06
2022-12-05T14:30:22.251Z,1.06
2022-12-05T14:31:22.254Z,1.06
2022-12-05T14:32:22.246Z,1.09
2022-12-05T14:33:22.249Z,1.08
2022-12-05T14:34:22.293Z,1.12
2022-12-05T14:35:22.210Z,1.11
2022-12-05T14:36:22.179Z,1.11
2022-12-05T14:37:22.170Z,1.12
2022-12-05T14:38:22.149Z,1.11
2022-12-05T14:39:22.168Z,1.06
2022-12-05T14:40:22.200Z,1.08
2022-12-05T14:41:22.214Z,1.06
2022-12-05T14:42:22.164Z,1.05
2022-12-05T14:43:22.137Z,1.04
2022-12-05T14:44:22.099Z,1.00
2022-12-05T14:45:22.100Z,1.02
2022-12-05T14:46:22.152Z,1.05
2022-12-05T14:47:22.082Z,1.04
2022-12-05T14:48:22.071Z,1.04
2022-12-05T14:49:22.018Z,0.98
2022-12-05T14:50:22.017Z,1.00
2022-12-05T14:51:22.020Z,1.02
2022-12-05T14:52:21.991Z,1.00
2022-12-05T14:53:21.943Z,0.98
2022-12-05T14:54:21.980Z,1.00
2022-12-05T14:55:26.623Z,1.00
2022-12-05T14:56:22.915Z,0.97
2022-12-05T14:57:21.863Z,0.98
2022-12-05T14:58:21.884Z,1.00
2022-12-05T14:59:21.877Z,0.96
2022-12-05T15:00:21.862Z,0.94
2022-12-05T15:01:21.945Z,0.98
2022-12-05T15:02:21.842Z,0.97
2022-12-05T15:03:21.833Z,0.96
2022-12-05T15:04:21.818Z,0.97
2022-12-05T15:05:21.797Z,0.97
2022-12-05T15:06:21.790Z,0.96
2022-12-05T15:07:21.808Z,0.97
2022-12-05T15:08:21.798Z,0.97
2022-12-05T15:09:36.643Z,0.94
2022-12-05T15:10:23.054Z,0.97
2022-12-05T15:11:21.708Z,0.98
2022-12-05T15:12:21.742Z,0.97
2022-12-05T15:13:21.696Z,1.00
2022-12-05T15:14:21.697Z,1.00
2022-12-05T15:15:21.651Z,0.98
2022-12-05T15:16:21.646Z,1.00
2022-12-05T15:17:21.672Z,0.98
2022-12-05T15:18:21.668Z,0.96
2022-12-05T15:19:21.586Z,1.00
2022-12-05T15:20:21.699Z,0.98
2022-12-05T15:21:21.602Z,0.96
2022-12-05T15:22:21.543Z,0.94
2022-12-05T15:23:21.524Z,0.97
2022-12-05T15:24:21.545Z,0.97
2022-12-05T15:25:21.541Z,1.00
2022-12-05T15:27:22.467Z,1.00
2022-12-05T15:28:21.545Z,0.98
2022-12-05T15:29:21.531Z,0.98
2022-12-05T15:30:21.439Z,0.94
2022-12-05T15:31:21.467Z,0.97
2022-12-05T15:32:21.397Z,0.97
2022-12-05T15:33:21.407Z,0.96
2022-12-05T15:34:21.412Z,0.94
2022-12-05T15:35:21.397Z,0.97
2022-12-05T15:36:21.363Z,0.98
2022-12-05T15:37:21.335Z,0.97
2022-12-05T15:38:27.043Z,1.00
2022-12-05T15:39:22.336Z,0.98
2022-12-05T15:40:21.336Z,0.98
2022-12-05T15:41:21.285Z,0.94
2022-12-05T15:42:26.085Z,0.96
2022-12-05T15:43:22.269Z,0.94
2022-12-05T15:44:27.075Z,0.96
2022-12-05T15:45:22.247Z,0.96
2022-12-05T15:46:21.259Z,0.96
2022-12-05T15:47:21.195Z,0.96
2022-12-05T15:48:23.212Z,0.96
2022-12-05T15:49:21.249Z,0.94
2022-12-05T15:50:21.257Z,0.97
2022-12-05T15:51:21.191Z,1.00
2022-12-05T15:52:21.173Z,0.97
2022-12-05T15:53:21.140Z,0.96
2022-12-05T15:54:26.168Z,0.98
2022-12-05T15:55:22.088Z,0.96
2022-12-05T15:56:21.144Z,0.98
2022-12-05T15:57:21.100Z,0.97
2022-12-05T15:58:21.118Z,0.98
2022-12-05T15:59:21.057Z,0.98
2022-12-05T16:00:21.077Z,0.98
2022-12-05T16:01:21.086Z,1.00
2022-12-05T16:02:21.127Z,0.97
2022-12-05T16:03:21.008Z,1.04
2022-12-05T16:04:24.901Z,1.00
2022-12-05T16:05:22.023Z,1.02
2022-12-05T16:06:20.987Z,1.00
2022-12-05T16:07:20.964Z,0.98
2022-12-05T16:08:21.078Z,0.97
2022-12-05T16:09:20.939Z,0.98
2022-12-05T16:10:23.479Z,0.97
2022-12-05T16:11:21.923Z,1.00
2022-12-05T16:12:20.917Z,0.97
2022-12-05T16:13:20.862Z,0.98
2022-12-05T16:14:37.176Z,0.98
2022-12-05T16:15:21.859Z,1.00
2022-12-05T16:16:20.885Z,0.98
2022-12-05T16:17:20.815Z,0.97
2022-12-05T16:18:20.820Z,1.02
2022-12-05T16:19:20.792Z,0.98
2022-12-05T16:20:20.784Z,1.00
2022-12-05T16:21:20.778Z,0.97
2022-12-05T16:22:20.753Z,1.00
2022-12-05T16:23:20.755Z,0.97
2022-12-05T16:24:20.713Z,0.97
2022-12-05T16:25:20.712Z,0.97
2022-12-05T16:26:20.734Z,0.97
2022-12-05T16:27:20.690Z,0.97
2022-12-05T16:28:20.675Z,1.00
2022-12-05T16:29:20.644Z,0.97
2022-12-05T16:30:20.661Z,1.00
2022-12-05T16:31:20.685Z,0.96
2022-12-05T16:32:20.661Z,0.98
2022-12-05T16:33:20.618Z,1.02
2022-12-05T16:34:20.596Z,1.00
2022-12-05T16:35:20.580Z,0.96
2022-12-05T16:36:20.597Z,0.97
2022-12-05T16:37:20.570Z,0.97
2022-12-05T16:38:20.542Z,0.98
2022-12-05T16:39:20.514Z,0.97
2022-12-05T16:40:20.524Z,0.97
2022-12-05T16:41:20.762Z,0.98
2022-12-05T16:42:20.518Z,0.98
2022-12-05T16:43:20.475Z,0.98
2022-12-05T16:44:23.455Z,1.00
2022-12-05T16:45:20.469Z,0.98
2022-12-05T16:46:20.483Z,0.97
2022-12-05T16:47:20.454Z,0.98
2022-12-05T16:48:20.403Z,1.00
2022-12-05T16:49:20.418Z,1.00
2022-12-05T16:50:20.390Z,1.00
2022-12-05T16:51:20.372Z,1.04
2022-12-05T16:52:20.359Z,1.00
2022-12-05T16:53:20.364Z,1.00
2022-12-05T16:54:20.323Z,1.00
2022-12-05T16:55:20.333Z,1.00
2022-12-05T16:56:20.307Z,1.00
2022-12-05T16:57:20.283Z,0.97
2022-12-05T16:58:20.279Z,1.02
2022-12-05T16:59:20.285Z,0.98
2022-12-05T17:00:20.239Z,0.97
2022-12-05T17:01:20.313Z,1.04
2022-12-05T17:02:20.315Z,1.00
2022-12-05T17:03:34.407Z,1.05
2022-12-05T17:04:21.284Z,1.05
2022-12-05T17:05:20.178Z,1.05
2022-12-05T17:06:20.194Z,1.00
2022-12-05T17:07:20.142Z,1.00
2022-12-05T17:08:20.211Z,1.04
2022-12-05T17:09:20.221Z,1.02
2022-12-05T17:10:20.134Z,1.08
2022-12-05T17:11:20.098Z,1.06
2022-12-05T17:12:20.117Z,1.09
2022-12-05T17:13:20.062Z,1.12
2022-12-05T17:14:20.067Z,1.12
2022-12-05T17:15:20.044Z,1.11
2022-12-05T17:16:20.829Z,1.12
2022-12-05T17:17:20.288Z,1.09
2022-12-05T17:18:20.006Z,1.09
2022-12-05T17:19:19.980Z,1.08
2022-12-05T17:20:20.005Z,1.09
2022-12-05T17:21:19.954Z,1.09
2022-12-05T17:22:19.981Z,1.08
2022-12-05T17:23:19.947Z,1.06
2022-12-05T17:24:19.938Z,1.09
2022-12-05T17:25:19.947Z,1.11
2022-12-05T17:26:19.921Z,1.06
2022-12-05T17:27:19.878Z,1.08
2022-12-05T17:28:19.877Z,1.08
2022-12-05T17:29:19.858Z,1.09
2022-12-05T17:30:19.856Z,1.06
2022-12-05T17:31:19.918Z,1.08
2022-12-05T17:32:19.819Z,1.09
2022-12-05T17:33:19.801Z,1.09
2022-12-05T17:34:19.796Z,1.09
2022-12-05T17:35:19.785Z,1.08
2022-12-05T17:36:19.769Z,1.08
2022-12-05T17:37:19.775Z,1.06
2022-12-05T17:38:19.734Z,1.09
2022-12-05T17:39:23.633Z,1.08
2022-12-05T17:40:20.715Z,1.06
2022-12-05T17:41:19.696Z,1.09
2022-12-05T17:42:19.688Z,1.08
2022-12-05T17:43:24.690Z,1.08
2022-12-05T17:44:20.659Z,1.09
2022-12-05T17:45:19.670Z,1.08
2022-12-05T17:46:19.659Z,1.08
2022-12-05T17:47:19.641Z,1.09
2022-12-05T17:48:19.610Z,1.09
2022-12-05T17:49:19.590Z,1.11
2022-12-05T17:50:19.597Z,1.12
2022-12-05T17:51:19.580Z,1.15
2022-12-05T17:52:22.144Z,1.12
2022-12-05T17:53:19.574Z,1.15
2022-12-05T17:54:19.525Z,1.15
2022-12-05T17:55:19.506Z,1.15
2022-12-05T17:56:19.499Z,1.14
2022-12-05T17:57:19.497Z,1.14
2022-12-05T17:58:19.472Z,1.15
2022-12-05T17:59:19.470Z,1.14
2022-12-05T18:00:19.681Z,1.15
2022-12-05T18:01:19.614Z,1.16
2022-12-05T18:02:19.483Z,1.14
2022-12-05T18:03:19.438Z,1.15
2022-12-05T18:04:23.341Z,1.16
2022-12-05T18:05:19.415Z,1.14
2022-12-05T18:06:19.615Z,1.12
2022-12-05T18:07:19.358Z,1.12
2022-12-05T18:08:19.393Z,1.14
2022-12-05T18:09:19.336Z,1.15
2022-12-05T18:10:19.332Z,1.12
2022-12-05T18:11:19.300Z,1.14
2022-12-05T18:12:19.485Z,1.14
2022-12-05T18:13:19.289Z,1.12
2022-12-05T18:14:19.356Z,1.11
2022-12-05T18:15:19.306Z,1.14
2022-12-05T18:16:19.707Z,1.12
2022-12-05T18:17:19.243Z,1.14
2022-12-05T18:18:19.236Z,1.15
2022-12-05T18:19:20.734Z,1.12
2022-12-05T18:20:20.288Z,1.12
2022-12-05T18:21:20.023Z,1.12
2022-12-05T18:22:21.735Z,1.15
2022-12-05T18:23:20.042Z,1.15
2022-12-05T18:24:21.186Z,1.12
2022-12-05T18:25:19.657Z,1.15
2022-12-05T18:26:20.889Z,1.18
2022-12-05T18:27:19.353Z,1.15
2022-12-05T18:28:21.012Z,1.16
2022-12-05T18:29:19.317Z,1.15
2022-12-05T18:30:19.262Z,1.16
2022-12-05T18:31:19.488Z,1.15
2022-12-05T18:32:20.651Z,1.14
2022-12-05T18:33:20.413Z,1.14
2022-12-05T18:34:19.332Z,1.15
2022-12-05T18:35:19.721Z,1.16
2022-12-05T18:36:22.102Z,1.20
2022-12-05T18:37:21.372Z,1.15
2022-12-05T18:38:21.282Z,1.18
2022-12-05T18:39:18.944Z,1.18
2022-12-05T18:40:18.959Z,1.16
2022-12-05T18:41:18.912Z,1.15
2022-12-05T18:42:18.887Z,1.18
2022-12-05T18:43:18.878Z,1.16
2022-12-05T18:44:18.896Z,1.18
2022-12-05T18:45:18.858Z,1.18
2022-12-05T18:46:18.881Z,1.23
2022-12-05T18:47:18.818Z,1.23
2022-12-05T18:48:38.737Z,1.20
2022-12-05T18:49:19.823Z,1.22
2022-12-05T18:50:18.785Z,1.22
2022-12-05T18:51:18.775Z,1.23
2022-12-05T18:52:18.762Z,1.23
2022-12-05T18:53:18.741Z,1.20
2022-12-05T18:54:18.721Z,1.22
2022-12-05T18:55:26.959Z,1.23
2022-12-05T18:56:22.674Z,1.20
2022-12-05T18:57:18.693Z,1.22
2022-12-05T18:58:18.684Z,1.26
2022-12-05T18:59:18.667Z,1.24
2022-12-05T19:00:18.661Z,1.24
2022-12-05T19:01:18.666Z,1.24
2022-12-05T19:02:18.665Z,1.23
2022-12-05T19:03:18.654Z,1.22
2022-12-05T19:04:18.721Z,1.24
2022-12-05T19:05:18.622Z,1.23
2022-12-05T19:06:18.573Z,1.23
2022-12-05T19:07:18.571Z,1.26
2022-12-05T19:08:18.721Z,1.29
2022-12-05T19:09:18.570Z,1.26
2022-12-05T19:10:18.717Z,1.24
2022-12-05T19:11:18.543Z,1.29
2022-12-05T19:12:18.489Z,1.30
2022-12-05T19:13:18.543Z,1.30
2022-12-05T19:14:18.472Z,1.30
2022-12-05T19:15:18.465Z,1.27
2022-12-05T19:16:18.553Z,1.27
2022-12-05T19:17:18.439Z,1.26
2022-12-05T19:18:18.436Z,1.27
2022-12-05T19:19:18.454Z,1.29
2022-12-05T19:20:18.385Z,1.30
2022-12-05T19:21:18.400Z,1.27
2022-12-05T19:22:18.389Z,1.29
2022-12-05T19:23:18.413Z,1.26
2022-12-05T19:24:18.356Z,1.24
2022-12-05T19:25:18.331Z,1.22
2022-12-05T19:26:18.312Z,1.22
2022-12-05T19:27:18.297Z,1.20
2022-12-05T19:28:18.319Z,1.23
2022-12-05T19:29:18.299Z,1.22
2022-12-05T19:30:18.339Z,1.23
2022-12-05T19:31:18.301Z,1.22
2022-12-05T19:32:18.259Z,1.20
2022-12-05T19:33:18.282Z,1.24
2022-12-05T19:34:18.271Z,1.27
2022-12-05T19:35:18.215Z,1.24
2022-12-05T19:36:18.196Z,1.26
2022-12-05T19:37:18.221Z,1.24
2022-12-05T19:38:18.199Z,1.27
2022-12-05T19:39:18.157Z,1.24
2022-12-05T19:40:18.180Z,1.29
2022-12-05T19:41:18.112Z,1.27
2022-12-05T19:42:18.114Z,1.27
2022-12-05T19:43:18.089Z,1.27
2022-12-05T19:44:18.104Z,1.27
2022-12-05T19:45:18.331Z,1.27
2022-12-05T19:46:18.112Z,1.27
2022-12-05T19:47:18.127Z,1.29
2022-12-05T19:48:18.058Z,1.32
2022-12-05T19:49:18.036Z,1.30
2022-12-05T19:50:18.092Z,1.29
2022-12-05T19:51:18.013Z,1.29
2022-12-05T19:52:18.185Z,1.32
2022-12-05T19:53:17.976Z,1.29
2022-12-05T19:54:17.950Z,1.32
2022-12-05T19:55:30.164Z,1.34
2022-12-05T19:56:17.949Z,1.32
2022-12-05T19:57:17.902Z,1.34
2022-12-05T19:58:17.877Z,1.37
2022-12-05T19:59:17.871Z,1.36
2022-12-05T20:00:17.866Z,1.40
2022-12-05T20:01:17.912Z,1.41
2022-12-05T20:02:17.911Z,1.41
2022-12-05T20:03:17.922Z,1.41
2022-12-05T20:04:17.838Z,1.41
2022-12-05T20:05:17.810Z,1.40
2022-12-05T20:06:18.569Z,1.40
2022-12-05T20:07:17.806Z,1.42
2022-12-05T20:08:17.944Z,1.40
2022-12-05T20:09:17.829Z,1.37
2022-12-05T20:10:17.753Z,1.36
2022-12-05T20:11:17.731Z,1.34
2022-12-05T20:12:17.739Z,1.40
2022-12-05T20:13:45.305Z,1.37
2022-12-05T20:14:18.819Z,1.40
2022-12-05T20:15:17.661Z,1.44
2022-12-05T20:16:17.709Z,1.42
2022-12-05T20:17:17.641Z,1.41
2022-12-05T20:18:17.638Z,1.41
2022-12-05T20:19:17.618Z,1.41
2022-12-05T20:20:17.595Z,1.42
2022-12-05T20:21:17.620Z,1.41
2022-12-05T20:22:17.566Z,1.40
2022-12-05T20:23:17.596Z,1.40
2022-12-05T20:24:17.570Z,1.37
2022-12-05T20:25:17.535Z,1.41
2022-12-05T20:26:17.515Z,1.37
2022-12-05T20:27:17.514Z,1.41
2022-12-05T20:28:17.498Z,1.41
2022-12-05T20:29:17.631Z,1.41
2022-12-05T20:30:17.522Z,1.40
2022-12-05T20:31:17.564Z,1.44
2022-12-05T20:32:17.610Z,1.45
2022-12-05T20:33:17.427Z,1.44
2022-12-05T20:34:17.408Z,1.45
2022-12-05T20:35:22.506Z,1.41
2022-12-05T20:36:18.456Z,1.44
2022-12-05T20:37:17.367Z,1.41
2022-12-05T20:38:17.367Z,1.45
2022-12-05T20:39:17.348Z,1.44
2022-12-05T20:40:17.397Z,1.44
2022-12-05T20:41:17.314Z,1.45
2022-12-05T20:42:17.376Z,1.48
2022-12-05T20:43:17.371Z,1.50
2022-12-05T20:44:17.361Z,1.50
2022-12-05T20:45:17.291Z,1.51
2022-12-05T20:46:17.390Z,1.48
2022-12-05T20:47:17.313Z,1.52
2022-12-05T20:48:17.220Z,1.51
2022-12-05T20:49:17.218Z,1.52
2022-12-05T20:50:17.203Z,1.55
2022-12-05T20:51:17.215Z,1.50
2022-12-05T20:52:17.226Z,1.54
2022-12-05T20:53:17.181Z,1.54
2022-12-05T20:54:17.228Z,1.52
2022-12-05T20:55:17.192Z,1.54
2022-12-05T20:56:17.120Z,1.54
2022-12-05T20:57:17.164Z,1.55
2022-12-05T20:58:17.130Z,1.54
2022-12-05T20:59:17.149Z,1.52
2022-12-05T21:00:17.142Z,1.51
2022-12-05T21:01:17.139Z,1.51
2022-12-05T21:02:17.129Z,1.50
2022-12-05T21:03:17.547Z,1.52
2022-12-05T21:04:17.051Z,1.48
2022-12-05T21:05:17.029Z,1.51
2022-12-05T21:06:17.068Z,1.54
2022-12-05T21:07:17.164Z,1.54
2022-12-05T21:08:17.092Z,1.54
2022-12-05T21:09:16.978Z,1.55
2022-12-05T21:10:17.029Z,1.59
2022-12-05T21:11:16.946Z,1.58
2022-12-05T21:12:17.112Z,1.55
2022-12-05T21:13:16.898Z,1.54
2022-12-05T21:14:16.892Z,1.55
2022-12-05T21:15:16.902Z,1.51
2022-12-05T21:16:16.919Z,1.55
2022-12-05T21:17:16.892Z,1.58
2022-12-05T21:18:16.833Z,1.55
2022-12-05T21:19:16.852Z,1.55
2022-12-05T21:20:16.809Z,1.52
2022-12-05T21:21:16.800Z,1.55
2022-12-05T21:22:16.796Z,1.58
2022-12-05T21:23:16.772Z,1.55
2022-12-05T21:24:16.775Z,1.58
2022-12-05T21:25:16.761Z,1.59
2022-12-05T21:26:16.714Z,1.59
2022-12-05T21:27:16.712Z,1.58
2022-12-05T21:28:16.700Z,1.59
2022-12-05T21:29:16.678Z,1.59
2022-12-05T21:30:16.674Z,1.60
2022-12-05T21:31:16.780Z,1.60
2022-12-05T21:32:16.673Z,1.59
2022-12-05T21:33:16.633Z,1.59
2022-12-05T21:34:16.610Z,1.59
2022-12-05T21:35:16.641Z,1.62
2022-12-05T21:36:16.590Z,1.60
2022-12-05T21:37:16.590Z,1.62
2022-12-05T21:38:16.575Z,1.65
2022-12-05T21:39:16.566Z,1.65
2022-12-05T21:40:16.532Z,1.65
2022-12-05T21:41:16.519Z,1.66
2022-12-05T21:42:16.540Z,1.63
2022-12-05T21:43:16.493Z,1.65
2022-12-05T21:44:16.473Z,1.66
2022-12-05T21:45:16.471Z,1.66
2022-12-05T21:46:16.523Z,1.68
2022-12-05T21:47:16.513Z,1.66
2022-12-05T21:48:16.570Z,1.65
2022-12-05T21:49:16.412Z,1.66
2022-12-05T21:50:16.412Z,1.65
2022-12-05T21:51:16.408Z,1.68
2022-12-05T21:52:16.376Z,1.68
2022-12-05T21:53:16.386Z,1.68
2022-12-05T21:54:16.367Z,1.68
2022-12-05T21:55:16.368Z,1.69
2022-12-05T21:56:16.328Z,1.68
2022-12-05T21:57:16.325Z,1.72
2022-12-05T21:58:16.301Z,1.72
2022-12-05T21:59:16.300Z,1.72
2022-12-05T22:00:16.307Z,1.69
2022-12-05T22:01:16.318Z,1.70
2022-12-05T22:02:16.318Z,1.70
2022-12-05T22:03:16.334Z,1.69
2022-12-05T22:04:16.272Z,1.72
2022-12-05T22:05:16.262Z,1.72
2022-12-05T22:06:16.215Z,1.73
2022-12-05T22:07:16.196Z,1.70
2022-12-05T22:08:16.207Z,1.72
2022-12-05T22:09:16.187Z,1.73
2022-12-05T22:10:16.188Z,1.73
2022-12-05T22:11:16.159Z,1.70
2022-12-05T22:12:16.107Z,1.73
2022-12-05T22:13:16.112Z,1.70
2022-12-05T22:14:16.103Z,1.73
2022-12-05T22:15:16.122Z,1.70
2022-12-05T22:16:16.127Z,1.76
2022-12-05T22:17:16.100Z,1.72
2022-12-05T22:18:16.039Z,1.76
2022-12-05T22:19:16.033Z,1.77
2022-12-05T22:20:16.010Z,1.72
2022-12-05T22:21:16.001Z,1.72
2022-12-05T22:22:16.008Z,1.73
2022-12-05T22:23:17.037Z,1.72
2022-12-05T22:24:15.961Z,1.73
2022-12-05T22:25:15.968Z,1.70
2022-12-05T22:26:15.930Z,1.73
2022-12-05T22:27:15.937Z,1.72
2022-12-05T22:28:15.931Z,1.73
2022-12-05T22:29:15.927Z,1.77
2022-12-05T22:30:15.938Z,1.72
2022-12-05T22:31:15.955Z,1.72
2022-12-05T22:32:15.844Z,1.73
2022-12-05T22:33:15.847Z,1.73
2022-12-05T22:34:15.834Z,1.72
2022-12-05T22:35:15.884Z,1.76
2022-12-05T22:36:15.795Z,1.76
2022-12-05T22:37:15.899Z,1.73
2022-12-05T22:38:15.779Z,1.77
2022-12-05T22:39:15.776Z,1.79
2022-12-05T22:40:15.772Z,1.80
2022-12-05T22:41:15.787Z,1.79
2022-12-05T22:42:15.719Z,1.77
2022-12-05T22:43:15.719Z,1.79
2022-12-05T22:44:15.712Z,1.77
2022-12-05T22:45:15.707Z,1.79
2022-12-05T22:46:15.751Z,1.80
2022-12-05T22:47:15.684Z,1.81
2022-12-05T22:48:15.644Z,1.80
2022-12-05T22:49:15.693Z,1.81
2022-12-05T22:50:15.726Z,1.80
2022-12-05T22:51:15.623Z,1.80
2022-12-05T22:52:15.572Z,1.81
2022-12-05T22:53:15.579Z,1.84
2022-12-05T22:54:15.600Z,1.80
2022-12-05T22:55:15.641Z,1.79
2022-12-05T22:56:15.590Z,1.80
2022-12-05T22:57:15.567Z,1.80
2022-12-05T22:58:15.564Z,1.79
2022-12-05T23:11:04.049Z,1.88
2022-12-05T23:12:04.049Z,1.86
2022-12-05T23:13:04.004Z,1.87
2022-12-05T23:14:04.016Z,1.87
2022-12-05T23:15:03.996Z,1.88
2022-12-05T23:16:04.012Z,1.90
2022-12-05T23:17:04.007Z,1.90
2022-12-05T23:18:03.995Z,1.91
2022-12-05T23:19:04.002Z,1.90
2022-12-05T23:20:03.907Z,1.93
2022-12-05T23:21:03.901Z,1.90
2022-12-05T23:22:03.898Z,1.91
2022-12-05T23:23:03.877Z,1.93
2022-12-05T23:24:03.871Z,1.93
2022-12-05T23:25:03.888Z,1.95
2022-12-05T23:26:03.841Z,1.98
2022-12-05T23:27:03.838Z,1.93
2022-12-05T23:28:03.846Z,1.91
2022-12-05T23:29:03.807Z,1.90
2022-12-05T23:30:03.775Z,1.91
2022-12-05T23:31:03.832Z,1.95
2022-12-05T23:32:03.752Z,1.93
2022-12-05T23:33:03.751Z,1.99
2022-12-05T23:34:04.230Z,1.95
2022-12-05T23:35:03.746Z,2.02
2022-12-05T23:36:03.739Z,2.02
2022-12-05T23:37:03.767Z,2.05
2022-12-05T23:38:03.688Z,2.00
2022-12-05T23:39:03.703Z,1.98
2022-12-05T23:40:03.656Z,1.95
2022-12-05T23:41:03.648Z,1.95
2022-12-05T23:42:03.638Z,2.00
2022-12-05T23:43:03.639Z,2.02
2022-12-05T23:44:03.597Z,2.03
2022-12-05T23:45:03.592Z,2.05
2022-12-05T23:46:03.571Z,2.06
2022-12-05T23:47:03.721Z,2.07
2022-12-05T23:48:04.773Z,2.05
2022-12-05T23:49:03.545Z,2.05
2022-12-05T23:50:03.527Z,2.06
2022-12-05T23:51:03.580Z,2.07
2022-12-05T23:52:03.480Z,2.05
2022-12-05T23:53:03.508Z,2.06
2022-12-05T23:54:03.486Z,2.07
2022-12-05T23:55:03.451Z,2.07
2022-12-05T23:56:03.440Z,2.09
2022-12-05T23:57:03.434Z,2.06
2022-12-05T23:58:03.419Z,2.09
2022-12-05T23:59:03.440Z,2.12
